Terminal Aerodrome Forecast
Issued by NWS

Home | Current Version | Previous Version | Text Only | Print | Product List | Glossary Off
Versions: 1 2 3 4 5 6 7 8 9 10 11 12 13 14 15 16 17 18 19 20 21 22 23 24 25 26 27 28 29 30 31 32 33

000
FTUS43 KLOT 202354
TAFMDW
TAF
KMDW 202354Z 2100/2124 09007KT P6SM SCT030 BKN040
     FM210300 05004KT P6SM BKN100
     FM211500 12006KT P6SM BKN100 PROB30 2122/2124 TSRA BKN050CB=

USA.gov is the U.S. government's official web portal to all federal, state and local government web resources and services.